createdAt,value
2018-07-21T00:00:46.093Z,67.40
2018-07-21T00:03:14.670Z,67.30
2018-07-21T00:05:43.287Z,67.60
2018-07-21T00:08:11.695Z,68.30
2018-07-21T00:10:40.221Z,69.90
2018-07-21T00:13:08.677Z,70.30
2018-07-21T00:15:37.121Z,70.60
2018-07-21T00:18:05.964Z,70.60
2018-07-21T00:20:34.385Z,71.10
2018-07-21T00:23:03.039Z,71.40
2018-07-21T00:25:31.484Z,71.10
2018-07-21T00:27:59.822Z,71.40
2018-07-21T00:30:28.524Z,73.10
2018-07-21T00:32:56.975Z,72.10
2018-07-21T00:37:53.508Z,72.20
2018-07-21T00:40:22.398Z,73.10
2018-07-21T00:42:50.835Z,73.20
2018-07-21T00:45:19.276Z,73.70
2018-07-21T00:47:47.834Z,74.10
2018-07-21T00:50:16.188Z,74.10
2018-07-21T00:52:44.659Z,73.80
2018-07-21T00:55:13.029Z,73.80
2018-07-21T00:57:41.837Z,73.90
2018-07-21T01:00:10.356Z,74.20
2018-07-21T01:02:38.816Z,74.30
2018-07-21T01:05:07.271Z,74.80
2018-07-21T01:07:35.658Z,75.00
2018-07-21T01:10:04.606Z,75.50
2018-07-21T01:12:33.057Z,75.90
2018-07-21T01:15:01.520Z,75.30
2018-07-21T01:17:30.137Z,75.60
2018-07-21T01:19:58.515Z,75.60
2018-07-21T01:22:27.044Z,75.20
2018-07-21T01:29:51.905Z,76.00
2018-07-21T01:32:20.435Z,76.20
2018-07-21T01:34:49.053Z,75.80
2018-07-21T01:37:17.590Z,75.80
2018-07-21T01:42:14.157Z,75.80
2018-07-21T01:44:42.612Z,75.30
2018-07-21T01:47:10.972Z,75.10
2018-07-21T01:49:39.336Z,75.10
2018-07-21T01:54:36.052Z,75.60
2018-07-21T01:57:04.988Z,75.00
2018-07-21T01:59:33.378Z,75.10
2018-07-21T02:02:01.825Z,74.80
2018-07-21T02:04:30.244Z,74.50
2018-07-21T02:06:58.714Z,74.90
2018-07-21T02:14:23.743Z,74.80
2018-07-21T02:16:52.812Z,74.00
2018-07-21T02:19:21.480Z,73.40
2018-07-21T02:21:50.259Z,72.80
2018-07-21T02:24:18.850Z,73.10
2018-07-21T02:26:47.488Z,72.90
2018-07-21T02:29:16.552Z,72.60
2018-07-21T02:31:45.043Z,72.60
2018-07-21T02:34:13.460Z,72.30
2018-07-21T02:36:41.874Z,72.00
2018-07-21T02:39:11.854Z,72.30
2018-07-21T02:41:40.442Z,71.70
2018-07-21T02:44:08.807Z,71.90
2018-07-21T02:46:37.613Z,71.80
2018-07-21T02:49:06.288Z,71.50
2018-07-21T02:51:34.781Z,71.10
2018-07-21T02:54:03.593Z,71.40
2018-07-21T02:56:32.113Z,71.40
2018-07-21T02:59:00.633Z,71.40
2018-07-21T03:01:29.078Z,71.30
2018-07-21T03:03:58.247Z,70.90
2018-07-21T03:08:54.888Z,70.80
2018-07-21T03:11:23.482Z,70.70
2018-07-21T03:13:52.021Z,71.10
2018-07-21T03:16:20.485Z,70.90
2018-07-21T03:18:49.020Z,71.10
2018-07-21T03:21:17.666Z,71.10
2018-07-21T03:23:46.201Z,70.80
2018-07-21T03:26:15.329Z,70.80
2018-07-21T03:28:44.250Z,70.90
2018-07-21T03:31:13.013Z,70.80
2018-07-21T03:36:09.985Z,70.90
2018-07-21T03:38:38.801Z,70.70
2018-07-21T03:41:07.322Z,71.80
2018-07-21T03:43:37.172Z,71.60
2018-07-21T03:46:06.507Z,71.00
2018-07-21T03:48:35.905Z,70.90
2018-07-21T03:51:04.559Z,70.70
2018-07-21T03:53:33.131Z,70.50
2018-07-21T03:56:02.720Z,70.50
2018-07-21T03:58:31.818Z,70.90
2018-07-21T04:01:01.328Z,70.80
2018-07-21T04:03:31.227Z,70.80
2018-07-21T04:06:00.170Z,70.40
2018-07-21T04:08:29.059Z,70.90
2018-07-21T04:10:58.031Z,70.70
2018-07-21T04:13:26.646Z,70.40
2018-07-21T04:15:55.391Z,70.40
2018-07-21T04:18:24.713Z,70.40
2018-07-21T04:23:21.746Z,70.30
2018-07-21T04:25:50.952Z,70.20
2018-07-21T04:28:20.450Z,70.20
2018-07-21T04:30:49.263Z,70.30
2018-07-21T04:33:17.888Z,70.20
2018-07-21T04:35:46.614Z,70.10
2018-07-21T04:38:15.359Z,70.40
2018-07-21T04:40:44.257Z,70.70
2018-07-21T04:43:13.017Z,71.00
2018-07-21T04:45:41.687Z,71.00
2018-07-21T04:48:10.625Z,71.20
2018-07-21T04:50:39.217Z,72.10
2018-07-21T04:53:08.340Z,72.90
2018-07-21T04:58:05.309Z,74.40
2018-07-21T05:00:34.111Z,74.30
2018-07-21T05:03:03.010Z,73.70
2018-07-21T05:05:31.335Z,74.00
2018-07-21T05:07:59.884Z,74.30
2018-07-21T05:10:28.437Z,74.30
2018-07-21T05:12:57.543Z,74.50
2018-07-21T05:15:26.509Z,75.40
2018-07-21T05:17:55.113Z,74.80
2018-07-21T05:20:23.884Z,75.20
2018-07-21T05:22:52.321Z,75.90
2018-07-21T05:25:21.059Z,76.00
2018-07-21T05:27:49.466Z,76.00
2018-07-21T05:30:17.943Z,75.70
2018-07-21T05:32:46.546Z,75.90
2018-07-21T05:35:14.930Z,75.80
2018-07-21T05:37:43.512Z,75.40
2018-07-21T05:40:11.901Z,75.40
2018-07-21T05:42:40.309Z,75.00
2018-07-21T05:45:08.801Z,74.70
2018-07-21T05:47:37.104Z,74.70
2018-07-21T05:50:05.943Z,74.80
2018-07-21T05:52:34.510Z,75.20
2018-07-21T05:55:02.941Z,75.40
2018-07-21T05:57:31.313Z,75.10
2018-07-21T05:59:59.761Z,75.10
2018-07-21T06:02:28.305Z,75.10
2018-07-21T06:04:56.829Z,74.90
2018-07-21T06:07:25.346Z,75.30
2018-07-21T06:09:53.758Z,75.00
2018-07-21T06:12:22.708Z,74.70
2018-07-21T06:14:51.159Z,74.80
2018-07-21T06:17:19.506Z,74.70
2018-07-21T06:19:48.139Z,74.70
2018-07-21T06:22:16.533Z,74.50
2018-07-21T06:24:45.013Z,74.30
2018-07-21T06:27:13.346Z,74.40
2018-07-21T06:32:09.862Z,74.10
2018-07-21T06:34:38.629Z,74.20
2018-07-21T06:37:07.101Z,74.00
2018-07-21T06:39:35.499Z,73.80
2018-07-21T06:42:03.911Z,73.50
2018-07-21T06:44:32.693Z,73.40
2018-07-21T06:49:30.794Z,71.80
2018-07-21T06:51:59.618Z,71.80
2018-07-21T06:56:56.339Z,72.70
2018-07-21T06:59:24.696Z,72.70
2018-07-21T07:06:49.743Z,72.80
2018-07-21T07:09:18.591Z,73.30
2018-07-21T07:11:47.478Z,73.00
2018-07-21T07:14:16.955Z,73.30
2018-07-21T07:16:45.447Z,72.90
2018-07-21T07:19:13.931Z,72.50
2018-07-21T07:24:10.629Z,72.30
2018-07-21T07:26:39.739Z,72.40
2018-07-21T07:31:36.907Z,71.60
2018-07-21T07:34:05.716Z,71.50
2018-07-21T07:36:34.492Z,70.70
2018-07-21T07:39:03.041Z,70.00
2018-07-21T07:41:32.361Z,70.50
2018-07-21T07:44:00.865Z,70.80
2018-07-21T07:46:29.516Z,71.30
2018-07-21T07:48:58.379Z,70.70
2018-07-21T07:51:27.308Z,70.40
2018-07-21T07:53:56.681Z,70.40
2018-07-21T07:56:25.283Z,69.80
2018-07-21T07:58:53.807Z,69.50
2018-07-21T08:01:22.576Z,69.80
2018-07-21T08:03:50.939Z,69.50
2018-07-21T08:06:19.745Z,70.00
2018-07-21T08:11:16.401Z,69.00
2018-07-21T08:13:44.726Z,69.20
2018-07-21T08:16:13.070Z,69.00
2018-07-21T08:18:41.436Z,69.50
2018-07-21T08:21:09.916Z,68.80
2018-07-21T08:23:38.321Z,68.90
2018-07-21T08:26:06.845Z,69.20
2018-07-21T08:28:35.142Z,69.60
2018-07-21T08:31:03.484Z,70.20
2018-07-21T08:33:31.874Z,70.10
2018-07-21T08:36:00.185Z,69.30
2018-07-21T08:38:28.929Z,68.70
2018-07-21T08:43:25.501Z,68.20
2018-07-21T08:45:53.900Z,67.20
2018-07-21T08:50:50.476Z,69.50
2018-07-21T08:55:46.915Z,67.60
2018-07-21T08:58:15.235Z,67.70
2018-07-21T09:03:11.867Z,67.20
2018-07-21T09:05:40.268Z,67.30
2018-07-21T09:08:08.709Z,67.60
2018-07-21T09:13:05.320Z,67.70
2018-07-21T09:15:33.696Z,67.70
2018-07-21T09:18:02.001Z,66.80
2018-07-21T09:20:30.363Z,66.90
2018-07-21T09:22:58.730Z,66.20
2018-07-21T09:25:27.025Z,66.60
2018-07-21T09:27:55.416Z,65.20
2018-07-21T09:32:53.178Z,65.40
2018-07-21T09:35:21.505Z,65.40
2018-07-21T09:40:18.482Z,64.70
2018-07-21T09:45:14.925Z,64.00
2018-07-21T09:47:43.301Z,63.50
2018-07-21T09:50:11.714Z,63.80
2018-07-21T09:52:40.277Z,63.40
2018-07-21T09:55:09.537Z,63.10
2018-07-21T09:57:38.198Z,62.60
2018-07-21T10:00:08.408Z,63.50
2018-07-21T10:02:37.198Z,63.20
2018-07-21T10:07:33.576Z,62.50
2018-07-21T10:12:30.007Z,61.50
2018-07-21T10:14:58.591Z,60.30
2018-07-21T10:17:26.983Z,60.70
2018-07-21T10:19:55.292Z,60.60
2018-07-21T10:22:23.710Z,58.30
2018-07-21T10:27:29.743Z,58.30
2018-07-21T10:29:58.088Z,58.30
2018-07-21T10:32:26.393Z,56.60
2018-07-21T10:34:54.705Z,56.10
2018-07-21T10:37:22.994Z,56.70
2018-07-21T10:39:51.422Z,55.30
2018-07-21T10:42:19.723Z,54.60
2018-07-21T10:44:48.001Z,54.60
2018-07-21T10:47:16.309Z,54.00
2018-07-21T10:49:44.644Z,54.00
2018-07-21T10:52:12.971Z,53.30
2018-07-21T10:54:41.505Z,54.00
2018-07-21T10:57:10.187Z,53.70
2018-07-21T11:02:06.540Z,53.90
2018-07-21T11:04:34.835Z,52.30
2018-07-21T11:07:03.264Z,53.50
2018-07-21T11:09:31.665Z,53.50
2018-07-21T11:11:59.961Z,53.80
2018-07-21T11:14:28.305Z,52.20
2018-07-21T11:16:56.593Z,52.20
2018-07-21T11:19:24.903Z,52.40
2018-07-21T11:21:53.327Z,53.50
2018-07-21T11:24:21.629Z,53.20
2018-07-21T11:26:49.932Z,52.30
2018-07-21T11:29:18.283Z,52.00
2018-07-21T11:31:46.600Z,52.10
2018-07-21T11:34:15.366Z,51.40
2018-07-21T11:36:43.701Z,50.30
2018-07-21T11:39:12.001Z,49.40
2018-07-21T11:41:40.320Z,48.50
2018-07-21T11:44:08.586Z,48.80
2018-07-21T11:46:36.949Z,48.80
2018-07-21T11:49:05.512Z,48.70
2018-07-21T11:51:33.817Z,48.50
2018-07-21T11:54:02.119Z,47.60
2018-07-21T11:56:30.521Z,47.00
2018-07-21T11:58:58.850Z,46.40
2018-07-21T12:01:27.253Z,45.20
2018-07-21T12:03:55.603Z,45.30
2018-07-21T12:06:23.929Z,45.80
2018-07-21T12:08:52.227Z,45.20
2018-07-21T12:11:20.591Z,44.50
2018-07-21T12:16:16.947Z,46.10
2018-07-21T12:18:45.275Z,45.30
2018-07-21T12:21:13.812Z,44.90
2018-07-21T12:23:42.118Z,45.20
2018-07-21T12:26:10.393Z,43.50
2018-07-21T12:28:38.692Z,42.80
2018-07-21T12:31:06.965Z,44.10
2018-07-21T12:33:35.262Z,44.50
2018-07-21T12:36:03.569Z,44.70
2018-07-21T12:38:31.953Z,45.60
2018-07-21T12:41:00.255Z,44.50
2018-07-21T12:43:28.556Z,44.60
2018-07-21T12:48:24.912Z,44.90
2018-07-21T12:50:53.184Z,43.60
2018-07-21T12:53:21.453Z,44.30
2018-07-21T12:55:49.880Z,44.30
2018-07-21T12:58:18.150Z,43.60
2018-07-21T13:00:46.424Z,45.00
2018-07-21T13:03:14.728Z,45.20
2018-07-21T13:05:43.000Z,45.20
2018-07-21T13:08:11.278Z,45.70
2018-07-21T13:10:39.553Z,45.90
2018-07-21T13:13:07.823Z,45.40
2018-07-21T13:15:36.120Z,46.00
2018-07-21T13:18:04.720Z,46.70
2018-07-21T13:20:33.056Z,45.50
2018-07-21T13:23:01.536Z,46.20
2018-07-21T13:25:29.853Z,47.00
2018-07-21T13:27:58.134Z,45.30
2018-07-21T13:32:54.569Z,45.50
2018-07-21T13:35:22.915Z,45.20
2018-07-21T13:40:19.167Z,45.30
2018-07-21T13:42:47.445Z,46.30
2018-07-21T13:45:15.709Z,46.30
2018-07-21T13:47:43.971Z,46.40
2018-07-21T13:50:12.216Z,46.00
2018-07-21T13:52:40.542Z,45.40
2018-07-21T13:55:08.819Z,45.60
2018-07-21T14:00:05.445Z,45.20
2018-07-21T14:02:33.688Z,43.50
2018-07-21T14:07:30.057Z,44.40
2018-07-21T14:14:54.596Z,43.80
2018-07-21T14:17:23.015Z,44.20
2018-07-21T14:19:51.316Z,43.30
2018-07-21T14:22:19.585Z,43.30
2018-07-21T14:24:47.856Z,43.70
2018-07-21T14:27:16.136Z,43.90
2018-07-21T14:29:44.502Z,43.80
2018-07-21T14:32:12.992Z,45.10
2018-07-21T14:34:41.269Z,45.60
2018-07-21T14:37:09.552Z,47.00
2018-07-21T14:39:37.823Z,46.90
2018-07-21T14:42:06.321Z,47.60
2018-07-21T14:44:34.664Z,46.70
2018-07-21T14:47:03.102Z,47.10
2018-07-21T14:49:31.360Z,48.00
2018-07-21T14:51:59.657Z,47.10
2018-07-21T14:56:56.060Z,46.70
2018-07-21T14:59:24.515Z,47.10
2018-07-21T15:01:52.885Z,48.60
2018-07-21T15:04:21.415Z,47.70
2018-07-21T15:06:49.777Z,47.60
2018-07-21T15:09:18.056Z,49.00
2018-07-21T15:11:46.343Z,49.90
2018-07-21T15:14:14.675Z,50.50
2018-07-21T15:16:43.119Z,50.70
2018-07-21T15:19:11.416Z,50.90
2018-07-21T15:21:39.720Z,49.80
2018-07-21T15:24:08.055Z,48.60
2018-07-21T15:26:36.431Z,49.20
2018-07-21T15:29:04.692Z,50.00
2018-07-21T15:31:33.020Z,50.80
2018-07-21T15:34:01.348Z,50.90
2018-07-21T15:36:29.640Z,49.40
2018-07-21T15:38:57.947Z,50.20
2018-07-21T15:41:26.332Z,50.10
2018-07-21T15:43:54.716Z,50.60
2018-07-21T15:46:23.047Z,50.90
2018-07-21T15:51:19.338Z,50.30
2018-07-21T15:53:47.657Z,50.20
2018-07-21T15:56:15.944Z,50.60
2018-07-21T15:58:44.279Z,51.60
2018-07-21T16:03:40.569Z,51.10
2018-07-21T16:06:08.919Z,51.90
2018-07-21T16:08:37.228Z,52.20
2018-07-21T16:11:05.667Z,51.40
2018-07-21T16:13:33.978Z,51.30
2018-07-21T16:16:02.270Z,52.00
2018-07-21T16:18:30.613Z,52.10
2018-07-21T16:20:59.036Z,51.70
2018-07-21T16:23:27.383Z,52.20
2018-07-21T16:25:55.755Z,50.90
2018-07-21T16:33:20.196Z,50.30
2018-07-21T16:35:48.836Z,50.60
2018-07-21T16:38:17.152Z,50.60
2018-07-21T16:40:45.473Z,50.10
2018-07-21T16:43:14.193Z,50.50
2018-07-21T16:45:42.494Z,50.40
2018-07-21T16:48:10.800Z,50.70
2018-07-21T16:50:39.100Z,50.50
2018-07-21T16:53:07.404Z,50.30
2018-07-21T16:55:35.704Z,49.50
2018-07-21T16:58:03.964Z,50.30
2018-07-21T17:00:32.247Z,51.10
2018-07-21T17:03:00.546Z,51.00
2018-07-21T17:05:28.836Z,51.00
2018-07-21T17:07:57.171Z,51.20
2018-07-21T17:15:21.593Z,50.50
2018-07-21T17:17:49.897Z,49.80
2018-07-21T17:20:18.232Z,48.90
2018-07-21T17:22:46.559Z,49.00
2018-07-21T17:25:14.852Z,49.30
2018-07-21T17:27:43.160Z,48.80
2018-07-21T17:30:11.496Z,48.80
2018-07-21T17:32:39.804Z,49.10
2018-07-21T17:35:08.119Z,49.30
2018-07-21T17:37:36.490Z,49.60
2018-07-21T17:40:04.793Z,49.50
2018-07-21T17:42:33.105Z,49.70
2018-07-21T17:47:29.448Z,50.00
2018-07-21T17:49:57.943Z,50.20
2018-07-21T17:52:26.339Z,50.90
2018-07-21T17:54:54.685Z,51.00
2018-07-21T17:57:23.013Z,50.30
2018-07-21T17:59:51.369Z,49.90
2018-07-21T18:02:19.664Z,50.20
2018-07-21T18:04:48.001Z,50.30
2018-07-21T18:07:16.342Z,50.80
2018-07-21T18:09:44.689Z,50.80
2018-07-21T18:14:41.028Z,51.00
2018-07-21T18:17:09.309Z,50.60
2018-07-21T18:19:38.152Z,50.20
2018-07-21T18:24:34.489Z,51.00
2018-07-21T18:27:02.816Z,51.50
2018-07-21T18:29:31.212Z,51.50
2018-07-21T18:31:59.696Z,51.80
2018-07-21T18:36:56.304Z,51.00
2018-07-21T18:39:24.699Z,51.50
2018-07-21T18:41:53.152Z,52.00
2018-07-21T18:44:22.447Z,52.50
2018-07-21T18:46:50.736Z,53.00
2018-07-21T18:49:19.093Z,53.50
2018-07-21T18:51:47.396Z,54.00
2018-07-21T18:54:16.572Z,54.40
2018-07-21T18:56:44.898Z,54.20
2018-07-21T18:59:13.264Z,53.00
2018-07-21T19:01:41.593Z,51.30
2018-07-21T19:04:10.010Z,51.80
2018-07-21T19:09:08.678Z,50.80
2018-07-21T19:11:37.165Z,50.80
2018-07-21T19:14:05.652Z,50.70
2018-07-21T19:16:38.075Z,49.50
2018-07-21T19:19:06.510Z,49.60
2018-07-21T19:24:03.015Z,49.00
2018-07-21T19:26:36.742Z,49.10
2018-07-21T19:29:05.128Z,49.50
2018-07-21T19:31:33.440Z,49.20
2018-07-21T19:34:01.852Z,49.50
2018-07-21T19:36:30.355Z,49.50
2018-07-21T19:41:32.400Z,49.70
2018-07-21T19:44:00.821Z,50.10
2018-07-21T19:46:29.411Z,50.70
2018-07-21T19:48:58.125Z,51.00
2018-07-21T19:51:26.784Z,51.00
2018-07-21T19:53:55.408Z,51.00
2018-07-21T19:56:24.119Z,51.50
2018-07-21T19:58:53.036Z,51.80
2018-07-21T20:03:49.773Z,52.00
2018-07-21T20:06:18.616Z,51.90
2018-07-21T20:08:46.988Z,51.90
2018-07-21T20:11:15.621Z,51.90
2018-07-21T20:16:12.176Z,52.50
2018-07-21T20:18:40.563Z,52.60
2018-07-21T20:21:09.023Z,52.90
2018-07-21T20:23:37.412Z,53.00
2018-07-21T20:26:05.788Z,53.20
2018-07-21T20:28:34.252Z,53.30
2018-07-21T20:33:30.852Z,53.30
2018-07-21T20:35:59.305Z,53.20
2018-07-21T20:40:56.236Z,53.20
2018-07-21T20:43:25.482Z,53.10
2018-07-21T20:45:53.985Z,53.10
2018-07-21T20:48:22.889Z,53.20
2018-07-21T20:50:51.300Z,53.40
2018-07-21T20:55:48.029Z,53.70
2018-07-21T20:58:16.548Z,53.90
2018-07-21T21:00:45.050Z,53.60
2018-07-21T21:03:13.488Z,53.60
2018-07-21T21:05:41.820Z,53.80
2018-07-21T21:08:10.136Z,53.90
2018-07-21T21:10:38.600Z,53.90
2018-07-21T21:13:07.276Z,53.70
2018-07-21T21:15:35.687Z,53.90
2018-07-21T21:18:04.038Z,54.00
2018-07-21T21:20:32.426Z,54.20
2018-07-21T21:23:01.233Z,54.00
2018-07-21T21:25:29.693Z,54.00
2018-07-21T21:27:58.400Z,54.00
2018-07-21T21:32:55.292Z,54.90
2018-07-21T21:35:23.909Z,54.20
2018-07-21T21:37:52.554Z,54.60
2018-07-21T21:40:21.017Z,54.60
2018-07-21T21:42:49.407Z,55.10
2018-07-21T21:45:17.881Z,55.30
2018-07-21T21:47:46.412Z,55.60
2018-07-21T21:50:14.782Z,55.50
2018-07-21T21:52:43.377Z,55.50
2018-07-21T21:55:11.882Z,56.10
2018-07-21T21:57:40.282Z,56.20
2018-07-21T22:00:10.429Z,56.30
2018-07-21T22:02:39.503Z,56.40
2018-07-21T22:05:07.818Z,56.40
2018-07-21T22:07:36.272Z,56.90
2018-07-21T22:10:05.196Z,56.70
2018-07-21T22:12:33.515Z,57.20
2018-07-21T22:15:01.932Z,56.70
2018-07-21T22:19:58.668Z,57.80
2018-07-21T22:22:27.123Z,57.80
2018-07-21T22:24:55.584Z,58.00
2018-07-21T22:27:24.257Z,57.90
2018-07-21T22:29:52.738Z,58.50
2018-07-21T22:32:21.192Z,58.70
2018-07-21T22:37:18.038Z,58.30
2018-07-21T22:39:46.555Z,58.20
2018-07-21T22:44:43.004Z,58.90
2018-07-21T22:47:11.462Z,58.60
2018-07-21T22:49:39.848Z,59.30
2018-07-21T22:52:08.284Z,59.50
2018-07-21T22:54:36.757Z,59.40
2018-07-21T22:57:05.588Z,59.60
2018-07-21T23:02:02.640Z,59.60
2018-07-21T23:04:31.141Z,61.20
2018-07-21T23:06:59.668Z,60.90
2018-07-21T23:09:28.062Z,60.60
2018-07-21T23:11:56.529Z,61.80
2018-07-21T23:14:25.342Z,63.00
2018-07-21T23:16:54.141Z,63.40
2018-07-21T23:19:23.266Z,63.40
2018-07-21T23:24:19.958Z,63.40
2018-07-21T23:26:48.752Z,65.40
2018-07-21T23:29:17.322Z,65.30
2018-07-21T23:31:45.837Z,65.30
2018-07-21T23:34:14.651Z,65.70
2018-07-21T23:36:43.480Z,67.30
2018-07-21T23:39:12.215Z,66.40
2018-07-21T23:41:40.721Z,67.00
2018-07-21T23:46:37.156Z,67.10
2018-07-21T23:49:05.792Z,67.60
2018-07-21T23:51:34.348Z,67.70
2018-07-21T23:54:02.801Z,67.90
2018-07-21T23:56:31.344Z,68.40
2018-07-21T23:58:59.867Z,68.90
